Etusivu
METAR-TAF:

METAR-TAF

Lentoasemat :

Fort Knox, Kentucky, Yhdysvallat

Leveyspiiri: 37-54N, Pituuspiiri: 085-58W, korkeus merenpinnasta: 230 m

Tämänhetkinen sää

Tämä raportti tehtiin 1 tunti ja 10 minuuttia sitten, kello 09.56 UTC
Tuuli 3 kn luoteesta
Lämpötila -3°C
Kosteus 93%
Ilmanpaine 1020 hPa
Näkyvyys: 16.1 km
selkeää

METAR: KFTK 170956Z AUTO 32003KT 10SM CLR M03/M04 A3013 RMK AO2 SLP212 T10341041

Aika: 06:06 (11:06 UTC)

Sääennuste

Tämä raportti tehtiin 2 tuntia ja 6 minuuttia sitten, kello 09.00 UTC
Ennuste voimassa 17. päivästä klo 09 UTC - 18. päivään klo 15 UTC
Tuuli 6 kn eri suunnista
Näkyvyys 10 km tai enemmän
Muutamia pilviä 15000 ft:n korkeudessa
Tulossa
18. päivästä klo 08 UTC - 18. päivään klo 09 UTC
Tuuli 6 kn idästä
Näkyvyys: 9000 m
Hajonneita pilviä 1500 ft:n korkeudessa
utua

TAF: KFTK 170900Z 1709/1815 VRB06KT 9999 FEW150 QNH2985INS BECMG 1808/1809 09006KT 9000 BR BKN015 QNH2979INS TX07/1720Z TNM02/1712Z

Säähavainnot ja -ennusteet yli 4000 lentoasemalta (METAR- ja TAF-raportit).

Käytössä olevat sääasemat on merkitty karttaan keltaisilla ja punaisilla pisteillä.

Aseta hiiri pisteen päälle nähdäksesi sääaseman nimen.

Klikkaa sitten nähdäksesi säähavainnot ja -ennusteet.

Kartan vaihtaminen: klikkaa mustalla rastilla varustettuja vihreitä pisteitä, niin voit zoomata sisään; viivalla varustettua vihreää pistettä, niin voit zoomata ulos tai vihreitä nuolia, niin pääset viereisille kartoille.


METAR-TAF: